Time;durP1;ratioP1;P1;durP2;ratioP2;P2;SDS_P1;SDS_P2;PMS_P1;PMS_P2;Temp;Humidity;BMP_temperature;BMP_pressure;BME280_temperature;BME280_humidity;BME280_pressure;Samples;Min_cycle;Max_cycle;Signal;HPM_P1;HPM_P2
2023/07/20 00:01:14;;;;;;;0.77;0.77;;;;;;;26.13;70.76;94968.31;5092101;28;20512;-54
2023/07/20 00:03:43;;;;;;;0.80;0.77;;;;;;;26.24;71.97;94961.00;5092145;28;20452;-54
2023/07/20 00:06:11;;;;;;;1.10;1.10;;;;;;;25.82;67.81;94957.94;5092299;28;20486;-54
2023/07/20 00:08:39;;;;;;;2.87;1.20;;;;;;;25.32;70.25;94950.41;5091572;28;20440;-55
2023/07/20 00:11:08;;;;;;;0.80;0.77;;;;;;;25.65;73.04;94953.13;5091700;28;20490;-55
2023/07/20 00:13:36;;;;;;;1.17;0.43;;;;;;;25.73;71.60;94943.88;5091814;28;20472;-55
2023/07/20 00:16:05;;;;;;;0.40;0.30;;;;;;;25.80;69.49;94946.66;5091996;28;20441;-54
2023/07/20 00:18:35;;;;;;;0.50;0.50;;;;;;;25.64;69.55;94937.97;5092101;28;20459;-54
2023/07/20 00:21:04;;;;;;;2.10;2.00;;;;;;;25.17;74.49;94952.97;5091743;28;20480;-54
2023/07/20 00:23:32;;;;;;;0.93;0.93;;;;;;;25.44;74.57;94958.28;5091662;28;20441;-54
2023/07/20 00:26:03;;;;;;;9.20;0.60;;;;;;;25.39;79.03;94950.50;5092007;28;20999;-54
2023/07/20 00:28:31;;;;;;;1.00;0.60;;;;;;;25.55;74.14;94961.94;5092020;28;20433;-54
2023/07/20 00:31:00;;;;;;;0.70;0.53;;;;;;;25.43;76.43;94978.44;5091578;28;20467;-54
2023/07/20 00:33:29;;;;;;;0.50;0.40;;;;;;;25.50;79.86;94975.84;5091583;28;20432;-54
2023/07/20 00:35:59;;;;;;;1.30;0.57;;;;;;;25.52;77.73;94973.53;5091112;28;20444;-53
2023/07/20 00:38:27;;;;;;;1.60;1.50;;;;;;;25.55;79.70;94972.78;5091829;28;20519;-53
2023/07/20 00:40:55;;;;;;;0.50;0.30;;;;;;;25.57;76.52;94979.41;5091609;28;20881;-53
2023/07/20 00:43:24;;;;;;;7.93;0.70;;;;;;;25.56;78.57;94975.13;5091395;28;20441;-53
2023/07/20 00:45:52;;;;;;;0.60;0.40;;;;;;;25.58;77.99;94975.53;5091845;28;20494;-54
2023/07/20 00:48:21;;;;;;;1.43;1.33;;;;;;;25.81;78.85;94968.00;5091720;28;20511;-53
2023/07/20 00:50:49;;;;;;;2.10;0.63;;;;;;;25.90;77.73;94965.00;5091148;28;20428;-54
2023/07/20 00:53:20;;;;;;;0.60;0.60;;;;;;;25.92;77.99;94954.53;5091705;28;20494;-54
2023/07/20 00:55:48;;;;;;;0.80;0.80;;;;;;;25.35;76.66;94946.97;5091197;28;20444;-54
2023/07/20 00:58:17;;;;;;;0.67;0.60;;;;;;;25.07;77.65;94958.28;5091276;28;20493;-52
2023/07/20 01:00:46;;;;;;;1.23;1.23;;;;;;;25.27;81.69;94959.69;5077588;28;20489;-53
2023/07/20 01:03:15;;;;;;;1.20;1.03;;;;;;;25.21;81.64;94951.09;5091207;28;20534;-53
2023/07/20 01:05:50;;;;;;;0.50;0.40;;;;;;;25.23;77.16;94946.06;5091084;28;20428;-53
2023/07/20 01:08:28;;;;;;;0.60;0.50;;;;;;;25.20;81.21;94948.72;5091533;28;20497;-53
2023/07/20 01:11:04;;;;;;;0.50;0.30;;;;;;;25.19;81.38;94928.19;5091314;28;20470;-54
2023/07/20 01:13:33;;;;;;;0.60;0.60;;;;;;;25.27;81.54;94929.84;5091044;28;20432;-54
2023/07/20 01:16:02;;;;;;;0.50;0.50;;;;;;;25.38;81.88;94927.22;5091431;28;20433;-54
2023/07/20 01:18:31;;;;;;;1.47;0.47;;;;;;;25.46;79.98;94942.44;5090878;28;20793;-54
2023/07/20 01:21:03;;;;;;;1.13;1.03;;;;;;;25.30;80.53;94953.50;5091155;28;20925;-54
2023/07/20 01:23:52;;;;;;;0.90;0.60;;;;;;;25.18;82.56;94956.47;5091212;28;20485;-54
2023/07/20 01:26:48;;;;;;;0.53;0.50;;;;;;;25.20;80.57;94949.50;5090515;28;20444;-54
2023/07/20 01:29:32;;;;;;;0.50;0.40;;;;;;;25.24;80.54;94965.84;5091139;28;20519;-54
2023/07/20 01:32:07;;;;;;;0.73;0.73;;;;;;;25.25;77.73;94953.81;5089378;28;20502;-54
2023/07/20 01:34:37;;;;;;;0.93;0.93;;;;;;;25.13;75.94;94954.06;5090254;28;20493;-53
2023/07/20 01:37:07;;;;;;;1.97;1.10;;;;;;;24.93;82.60;94949.97;5090819;28;20866;-53
2023/07/20 01:39:37;;;;;;;1.00;0.97;;;;;;;25.06;82.85;94960.22;5090884;28;20467;-54
2023/07/20 01:42:06;;;;;;;0.77;0.77;;;;;;;25.11;82.02;94959.88;5090725;28;20472;-54
2023/07/20 01:44:34;;;;;;;0.50;0.40;;;;;;;24.97;78.28;94962.41;5090767;28;20490;-54
2023/07/20 01:47:04;;;;;;;0.50;0.30;;;;;;;25.13;81.16;94963.00;5091567;28;20497;-53
2023/07/20 01:49:32;;;;;;;0.50;0.47;;;;;;;25.27;82.14;94968.56;5094767;28;20436;-53
2023/07/20 01:52:01;;;;;;;0.60;0.60;;;;;;;25.17;82.36;94974.66;5094860;28;20501;-53
2023/07/20 01:54:29;;;;;;;2.40;0.83;;;;;;;25.22;83.10;94966.19;5094384;28;20481;-53
2023/07/20 01:56:57;;;;;;;0.97;0.80;;;;;;;25.29;81.85;94976.34;5094945;28;20520;-53
2023/07/20 01:59:26;;;;;;;0.50;0.37;;;;;;;25.21;75.44;94972.78;5094324;28;20472;-54
2023/07/20 02:01:54;;;;;;;0.50;0.50;;;;;;;25.23;81.92;94970.47;5093788;28;21191;-53
2023/07/20 02:04:24;;;;;;;0.70;0.70;;;;;;;25.20;80.02;94973.13;5094435;28;20881;-53
2023/07/20 02:06:53;;;;;;;0.70;0.50;;;;;;;25.17;82.60;94961.09;5080820;28;21024;-53
2023/07/20 02:09:22;;;;;;;1.77;1.77;;;;;;;25.23;82.36;94967.75;5094616;28;20452;-53
2023/07/20 02:11:50;;;;;;;1.20;1.10;;;;;;;25.25;79.84;94965.47;5093726;28;20437;-53
2023/07/20 02:14:19;;;;;;;2.63;0.80;;;;;;;25.25;82.33;94972.81;5094493;28;20445;-53
2023/07/20 02:16:51;;;;;;;1.30;0.70;;;;;;;25.38;82.38;94987.69;5094123;28;20941;-53
2023/07/20 02:19:19;;;;;;;0.57;0.57;;;;;;;25.36;82.71;94986.50;5094364;28;20440;-53
2023/07/20 02:21:49;;;;;;;0.90;0.90;;;;;;;25.29;81.90;94987.22;5094042;28;20503;-53
2023/07/20 02:24:18;;;;;;;0.50;0.50;;;;;;;25.10;80.96;94979.22;5094528;28;20448;-53
2023/07/20 02:26:46;;;;;;;1.07;0.50;;;;;;;25.09;82.83;94975.75;5093153;28;20441;-53
2023/07/20 02:29:15;;;;;;;1.57;0.70;;;;;;;25.08;83.16;94984.22;5093619;28;20520;-53
2023/07/20 02:31:43;;;;;;;1.23;1.20;;;;;;;24.31;80.68;94981.22;5093758;28;20496;-53
2023/07/20 02:34:12;;;;;;;0.50;0.33;;;;;;;24.50;85.07;94981.91;5093411;28;21014;-53
2023/07/20 02:36:42;;;;;;;0.83;0.73;;;;;;;24.63;82.19;94974.34;5093261;28;21016;-53
2023/07/20 02:39:12;;;;;;;0.50;0.30;;;;;;;24.72;83.26;94974.06;5093892;28;20440;-53
2023/07/20 02:41:41;;;;;;;0.60;0.60;;;;;;;24.77;83.50;94974.50;5093828;28;21180;-53
2023/07/20 02:44:09;;;;;;;0.60;0.50;;;;;;;24.80;82.68;94970.31;5092954;28;20445;-53
2023/07/20 02:46:38;;;;;;;0.70;0.70;;;;;;;24.83;84.14;94981.22;5093303;28;20969;-53
2023/07/20 02:49:06;;;;;;;0.70;0.70;;;;;;;24.87;83.73;94975.84;5093233;28;20483;-53
2023/07/20 02:51:34;;;;;;;1.00;1.00;;;;;;;24.81;83.36;94975.38;5093530;28;20440;-53
2023/07/20 02:54:03;;;;;;;0.73;0.53;;;;;;;24.76;82.07;94970.25;5093386;28;20574;-53
2023/07/20 02:56:33;;;;;;;0.80;0.60;;;;;;;24.54;83.06;94982.72;5093496;28;20818;-53
2023/07/20 02:59:02;;;;;;;0.70;0.70;;;;;;;24.27;83.62;94985.78;5092440;28;20468;-54
2023/07/20 03:01:30;;;;;;;1.00;0.93;;;;;;;24.38;86.68;94989.44;5093662;28;20468;-53
2023/07/20 03:03:59;;;;;;;1.17;1.03;;;;;;;24.56;86.80;94985.06;5093008;28;20440;-53
2023/07/20 03:06:27;;;;;;;1.30;1.23;;;;;;;23.74;82.15;94982.97;5093408;28;20433;-53
2023/07/20 03:08:56;;;;;;;1.00;0.73;;;;;;;23.89;90.95;94984.78;5092581;28;20444;-53
2023/07/20 03:11:24;;;;;;;0.53;0.50;;;;;;;24.27;90.10;94993.91;5093208;28;20447;-53
2023/07/20 03:13:54;;;;;;;1.33;0.67;;;;;;;24.41;86.97;94986.03;5093021;28;20487;-53
2023/07/20 03:16:24;;;;;;;0.50;0.40;;;;;;;24.26;86.65;94966.03;5092395;28;20440;-53
2023/07/20 03:18:53;;;;;;;0.50;0.47;;;;;;;24.55;87.72;94992.41;5092323;28;20475;-53
2023/07/20 03:21:22;;;;;;;0.50;0.40;;;;;;;24.70;86.61;94976.34;5092515;28;20468;-53
2023/07/20 03:23:50;;;;;;;1.10;1.03;;;;;;;24.55;84.71;94987.00;5092841;28;20497;-53
2023/07/20 03:26:18;;;;;;;0.97;0.40;;;;;;;24.54;86.24;95000.94;5079505;28;20469;-53
2023/07/20 03:28:46;;;;;;;0.70;0.70;;;;;;;24.57;86.10;94994.75;5093045;28;20461;-53
2023/07/20 03:31:16;;;;;;;4.53;0.80;;;;;;;24.56;86.30;94990.50;5092628;28;20458;-53
2023/07/20 03:33:44;;;;;;;0.60;0.60;;;;;;;24.56;85.93;94985.06;5092971;28;20444;-53
2023/07/20 03:36:13;;;;;;;0.60;0.40;;;;;;;24.52;84.13;94990.44;5092327;28;20511;-53
2023/07/20 03:38:41;;;;;;;0.97;0.53;;;;;;;24.60;86.26;94994.81;5092587;28;20444;-53
2023/07/20 03:41:11;;;;;;;1.00;0.50;;;;;;;24.62;86.37;95000.66;5078448;28;20494;-53
2023/07/20 03:43:40;;;;;;;0.40;0.30;;;;;;;24.63;86.77;94996.00;5092809;28;20464;-53
2023/07/20 03:46:08;;;;;;;0.93;0.93;;;;;;;24.73;85.72;94984.53;5092391;28;20437;-53
2023/07/20 03:48:38;;;;;;;0.80;0.60;;;;;;;24.76;82.52;94989.22;5093067;28;20444;-53
2023/07/20 03:51:06;;;;;;;1.43;1.33;;;;;;;24.87;84.48;94984.75;5092447;28;20506;-53
2023/07/20 03:53:35;;;;;;;0.97;0.97;;;;;;;24.42;85.26;94992.97;5080205;28;20477;-53
2023/07/20 03:56:03;;;;;;;1.60;1.30;;;;;;;23.59;88.68;94986.56;5091694;28;20468;-53
2023/07/20 03:58:31;;;;;;;2.07;0.70;;;;;;;23.98;89.17;94996.13;5092423;28;20432;-53
2023/07/20 04:01:00;;;;;;;1.60;1.30;;;;;;;24.33;88.87;94997.88;5078489;28;21062;-53
2023/07/20 04:03:28;;;;;;;1.23;1.13;;;;;;;24.61;89.94;94995.59;5092466;28;20508;-53
2023/07/20 04:05:58;;;;;;;0.80;0.53;;;;;;;24.74;88.36;95001.59;5066387;28;20881;-53
2023/07/20 04:08:27;;;;;;;2.37;1.00;;;;;;;24.66;86.81;94999.91;5092393;28;20440;-53
2023/07/20 04:10:55;;;;;;;1.27;1.17;;;;;;;24.23;89.42;95002.00;5092256;28;20808;-53
2023/07/20 04:13:23;;;;;;;1.80;1.03;;;;;;;24.02;93.75;95002.41;5091919;28;20827;-53
2023/07/20 04:15:52;;;;;;;7.60;1.20;;;;;;;24.19;93.95;95003.84;5091911;28;20436;-53
2023/07/20 04:18:20;;;;;;;0.90;0.63;;;;;;;24.38;91.77;94984.03;5092173;28;20444;-53
2023/07/20 04:20:48;;;;;;;2.00;1.90;;;;;;;24.33;91.21;94987.06;5092125;28;20509;-53
2023/07/20 04:23:18;;;;;;;1.20;1.20;;;;;;;24.36;90.55;94986.34;5091803;28;20472;-53
2023/07/20 04:25:46;;;;;;;0.80;0.80;;;;;;;24.48;92.81;94988.81;5091801;28;20937;-53
2023/07/20 04:28:15;;;;;;;0.70;0.70;;;;;;;24.51;90.02;94977.25;5091577;28;20458;-53
2023/07/20 04:30:43;;;;;;;0.50;0.30;;;;;;;24.38;87.27;94973.19;5091887;28;20495;-53
2023/07/20 04:33:12;;;;;;;0.70;0.50;;;;;;;24.56;91.71;94990.50;5091512;28;20433;-53
2023/07/20 04:35:48;;;;;;;0.73;0.60;;;;;;;24.67;88.39;94998.78;5091725;28;21038;-54
2023/07/20 04:38:18;;;;;;;1.07;0.57;;;;;;;24.73;91.01;94989.97;5091399;28;20436;-54
2023/07/20 04:40:48;;;;;;;1.63;1.53;;;;;;;24.55;90.86;95003.25;5091703;28;20437;-54
2023/07/20 04:43:17;;;;;;;0.50;0.40;;;;;;;24.85;86.37;94997.09;5091774;28;20511;-54
2023/07/20 04:45:45;;;;;;;0.93;0.87;;;;;;;24.92;87.85;94997.97;5091181;28;20957;-54
2023/07/20 04:48:16;;;;;;;1.80;0.80;;;;;;;24.73;84.95;95000.81;5091678;28;21019;-54
2023/07/20 04:50:45;;;;;;;0.80;0.80;;;;;;;24.02;89.88;94999.69;5084428;28;20942;-54
2023/07/20 04:53:14;;;;;;;0.70;0.57;;;;;;;24.06;91.90;94990.84;5091457;28;20436;-54
2023/07/20 04:55:50;;;;;;;1.73;1.63;;;;;;;24.33;90.76;95012.22;5091193;28;20447;-54
2023/07/20 04:58:19;;;;;;;0.77;0.50;;;;;;;24.73;89.99;95013.56;5091703;28;20429;-54
2023/07/20 05:00:49;;;;;;;0.70;0.60;;;;;;;24.05;84.36;94949.44;5091333;28;21014;-54
2023/07/20 05:03:17;;;;;;;1.10;1.10;;;;;;;24.36;87.71;95018.84;5091379;28;20560;-54
2023/07/20 05:05:47;;;;;;;1.30;1.23;;;;;;;23.86;92.20;95003.66;5090939;28;20497;-54
2023/07/20 05:08:17;;;;;;;1.30;1.20;;;;;;;24.04;92.69;95002.03;5091552;28;20519;-54
2023/07/20 05:10:47;;;;;;;1.50;1.40;;;;;;;24.38;89.40;95003.00;5091303;28;20490;-54
2023/07/20 05:13:15;;;;;;;1.17;0.93;;;;;;;24.43;90.15;95003.47;5091793;28;20433;-54
2023/07/20 05:15:44;;;;;;;1.13;1.03;;;;;;;24.60;90.94;95002.16;5091586;28;20578;-54
2023/07/20 05:18:12;;;;;;;0.70;0.70;;;;;;;25.05;87.44;95002.03;5091207;28;20447;-53
2023/07/20 05:20:41;;;;;;;1.13;1.03;;;;;;;24.79;83.52;94998.59;5091808;28;20446;-56
2023/07/20 05:23:09;;;;;;;1.57;1.47;;;;;;;25.08;83.47;95001.28;5093535;28;20487;-56
2023/07/20 05:25:37;;;;;;;0.73;0.73;;;;;;;25.02;83.75;94991.91;5095609;28;20446;-56
2023/07/20 05:28:07;;;;;;;0.70;0.70;;;;;;;24.96;82.39;94938.38;5095283;28;20475;-56
2023/07/20 05:30:36;;;;;;;1.47;0.90;;;;;;;25.05;85.04;94988.47;5095287;28;20441;-56
2023/07/20 05:33:04;;;;;;;1.90;1.80;;;;;;;24.50;84.68;94930.41;5095452;28;20460;-56
2023/07/20 05:35:32;;;;;;;0.70;0.70;;;;;;;25.06;84.47;94991.97;5094902;28;21012;-56
2023/07/20 05:38:01;;;;;;;0.70;0.70;;;;;;;25.60;82.12;94986.78;5095256;28;20448;-56
2023/07/20 05:40:29;;;;;;;0.53;0.50;;;;;;;25.76;80.06;94981.13;5095073;28;20497;-56
2023/07/20 05:42:58;;;;;;;0.73;0.73;;;;;;;26.02;78.98;94977.50;5094880;28;20467;-56
2023/07/20 05:45:28;;;;;;;1.20;1.00;;;;;;;25.99;75.74;94979.03;5095115;28;20497;-56
2023/07/20 05:47:56;;;;;;;2.20;2.00;;;;;;;26.04;76.20;94975.97;5068626;28;20443;-56
2023/07/20 05:50:25;;;;;;;0.70;0.63;;;;;;;26.38;75.29;94974.72;5094312;28;20439;-57
2023/07/20 05:52:54;;;;;;;1.10;1.10;;;;;;;26.23;74.90;94970.34;5094587;28;20463;-56
2023/07/20 05:55:22;;;;;;;0.80;0.67;;;;;;;26.32;74.01;94983.59;5094478;28;20960;-57
2023/07/20 05:57:51;;;;;;;1.40;1.30;;;;;;;26.28;72.29;94967.28;5095016;28;20459;-57
2023/07/20 06:00:26;;;;;;;1.60;0.80;;;;;;;26.58;71.73;94977.94;5094232;28;20837;-57
2023/07/20 06:02:56;;;;;;;0.73;0.73;;;;;;;27.00;68.83;94974.69;5088991;28;20546;-58
2023/07/20 06:05:24;;;;;;;0.63;0.57;;;;;;;27.10;69.33;94976.69;5091214;28;20444;-59
2023/07/20 06:07:57;;;;;;;0.40;0.40;;;;;;;27.81;67.27;94974.19;5094633;28;20886;-58
2023/07/20 06:10:26;;;;;;;0.90;0.40;;;;;;;28.10;64.94;94962.19;5094440;28;20429;-58
2023/07/20 06:12:56;;;;;;;1.10;1.10;;;;;;;28.33;65.50;94968.78;5094522;28;20995;-59
2023/07/20 06:15:28;;;;;;;0.47;0.30;;;;;;;28.38;64.27;94945.81;5094050;28;20464;-59
2023/07/20 06:17:58;;;;;;;1.53;1.43;;;;;;;28.00;63.78;94952.03;5094103;28;20444;-59
2023/07/20 06:20:26;;;;;;;2.13;2.03;;;;;;;27.67;66.00;94961.34;5094049;28;20528;-59
2023/07/20 06:22:55;;;;;;;2.63;2.53;;;;;;;27.48;67.52;94953.50;5094130;28;20468;-59
2023/07/20 06:25:23;;;;;;;3.10;2.90;;;;;;;27.28;67.73;94955.75;5093933;28;20436;-59
2023/07/20 06:27:52;;;;;;;2.83;1.73;;;;;;;27.86;68.71;94946.56;5094287;28;20466;-60
2023/07/20 06:30:20;;;;;;;1.50;0.73;;;;;;;28.23;68.05;94947.00;5093908;28;20530;-60
2023/07/20 06:32:49;;;;;;;2.93;2.10;;;;;;;27.91;66.66;94894.44;5093805;28;20444;-60
2023/07/20 06:35:19;;;;;;;1.30;1.20;;;;;;;28.40;64.97;94948.16;5093781;28;20506;-60
2023/07/20 06:37:47;;;;;;;4.00;1.70;;;;;;;28.62;65.47;94947.75;5093947;28;20505;-60
2023/07/20 06:40:15;;;;;;;2.10;2.00;;;;;;;28.30;64.66;94947.78;5093669;28;20444;-60
2023/07/20 06:42:47;;;;;;;2.43;1.83;;;;;;;28.35;64.09;94954.78;5093461;28;20479;-59
2023/07/20 06:45:18;;;;;;;6.13;2.97;;;;;;;28.92;63.07;94952.72;5093918;28;20440;-58
2023/07/20 06:47:46;;;;;;;1.13;1.07;;;;;;;29.33;61.66;94942.06;5093471;28;20494;-56
2023/07/20 06:50:15;;;;;;;1.17;1.10;;;;;;;29.25;60.64;94948.72;5093250;28;20822;-59
2023/07/20 06:52:47;;;;;;;3.33;1.53;;;;;;;29.63;59.17;94955.16;5093503;28;20433;-58
2023/07/20 06:55:16;;;;;;;0.73;0.73;;;;;;;30.16;59.17;94947.41;5093910;28;20443;-61
2023/07/20 06:57:51;;;;;;;1.53;0.60;;;;;;;30.66;58.09;94936.81;5093639;28;20526;-59
2023/07/20 07:00:20;;;;;;;2.03;1.90;;;;;;;30.09;58.47;94947.47;5092522;28;20480;-59
2023/07/20 07:02:49;;;;;;;6.33;1.13;;;;;;;30.23;58.48;94943.84;5093278;28;20455;-60
2023/07/20 07:05:18;;;;;;;3.50;2.07;;;;;;;29.63;57.20;94945.03;5092929;28;20451;-59
2023/07/20 07:07:50;;;;;;;0.60;0.47;;;;;;;30.48;56.93;94936.22;5093121;28;20469;-58
2023/07/20 07:10:18;;;;;;;1.37;1.30;;;;;;;30.77;55.66;94945.69;5092680;28;20520;-58
2023/07/20 07:12:46;;;;;;;0.90;0.90;;;;;;;31.17;56.60;94933.91;5093510;28;20876;-60
2023/07/20 07:15:15;;;;;;;2.07;1.97;;;;;;;30.86;53.98;94934.25;5093015;28;20443;-59
2023/07/20 07:17:44;;;;;;;1.17;1.07;;;;;;;31.43;53.73;94918.69;5093077;28;20483;-58
2023/07/20 07:20:12;;;;;;;0.93;0.70;;;;;;;31.27;52.83;94922.03;5092836;28;20949;-61
2023/07/20 07:22:51;;;;;;;8.80;0.90;;;;;;;31.32;52.78;94920.81;5093420;28;20458;-59
2023/07/20 07:25:20;;;;;;;1.20;1.10;;;;;;;30.92;52.43;94919.75;5066726;28;20475;-60
2023/07/20 07:27:52;;;;;;;0.83;0.83;;;;;;;31.25;51.82;94932.63;5091910;28;20858;-55
2023/07/20 07:30:20;;;;;;;1.03;0.93;;;;;;;31.56;51.94;94925.22;5080687;28;20523;-55
2023/07/20 07:32:49;;;;;;;0.53;0.53;;;;;;;32.16;50.82;94918.81;5092757;28;20854;-55
2023/07/20 07:35:17;;;;;;;1.17;1.07;;;;;;;32.27;49.29;94910.41;5092794;28;20442;-55
2023/07/20 07:37:46;;;;;;;5.50;1.77;;;;;;;31.67;49.74;94903.91;5092477;28;20496;-55
2023/07/20 07:40:36;;;;;;;5.23;1.30;;;;;;;32.47;51.57;94906.53;5092396;28;20489;-55
2023/07/20 07:43:04;;;;;;;1.93;1.83;;;;;;;31.92;50.44;94903.53;5092401;28;20825;-55
2023/07/20 07:45:36;;;;;;;1.27;1.23;;;;;;;32.05;50.25;94890.03;5091682;28;20476;-55
2023/07/20 07:48:05;;;;;;;1.13;1.13;;;;;;;31.78;49.75;94899.03;5092327;28;20888;-55
2023/07/20 07:50:34;;;;;;;4.57;1.40;;;;;;;31.90;49.44;94882.00;5092581;28;20439;-55
2023/07/20 07:53:02;;;;;;;0.90;0.90;;;;;;;32.50;51.04;94897.47;5092836;28;20440;-54
2023/07/20 07:55:31;;;;;;;1.13;1.03;;;;;;;32.34;50.67;94893.84;5092299;28;20940;-55
2023/07/20 07:58:00;;;;;;;1.07;1.07;;;;;;;32.63;49.32;94890.22;5092221;28;20440;-54
2023/07/20 08:00:29;;;;;;;1.17;1.10;;;;;;;32.63;49.47;94889.44;5092121;28;20983;-55
2023/07/20 08:02:57;;;;;;;1.00;0.80;;;;;;;32.83;48.51;94886.69;5092027;28;20466;-54
2023/07/20 08:05:26;;;;;;;1.90;1.80;;;;;;;32.85;47.33;94884.28;5091276;28;20510;-54
2023/07/20 08:07:54;;;;;;;0.87;0.87;;;;;;;33.34;47.75;94879.78;5092662;28;20520;-52
2023/07/20 08:10:23;;;;;;;1.17;1.07;;;;;;;33.33;47.39;94878.22;5091895;28;20436;-55
2023/07/20 08:12:51;;;;;;;0.80;0.80;;;;;;;33.40;49.91;94881.59;5092264;28;20436;-53
2023/07/20 08:15:21;;;;;;;0.60;0.53;;;;;;;33.83;47.20;94893.19;5091772;28;20436;-53
2023/07/20 08:17:51;;;;;;;1.60;1.50;;;;;;;34.05;46.90;94895.44;5091957;28;20465;-54
2023/07/20 08:20:23;;;;;;;3.10;1.83;;;;;;;33.74;46.52;94900.47;5091709;28;20447;-54
2023/07/20 08:22:51;;;;;;;3.23;1.17;;;;;;;34.02;47.84;94899.03;5091939;28;20455;-55
2023/07/20 08:25:20;;;;;;;0.70;0.70;;;;;;;34.58;45.28;94888.63;5091888;28;20471;-55
2023/07/20 08:27:48;;;;;;;1.53;1.43;;;;;;;33.64;45.04;94890.50;5091822;28;20485;-55
2023/07/20 08:30:17;;;;;;;1.03;0.93;;;;;;;34.27;44.63;94883.50;5091684;28;20470;-55
2023/07/20 08:32:47;;;;;;;1.30;1.20;;;;;;;34.37;46.79;94892.69;5091827;28;20578;-55
2023/07/20 08:35:16;;;;;;;1.00;0.90;;;;;;;34.06;47.79;94886.78;5091988;28;20443;-57
2023/07/20 08:37:44;;;;;;;0.90;0.90;;;;;;;34.70;47.21;94883.19;5077966;28;20436;-57
2023/07/20 08:40:15;;;;;;;0.90;0.90;;;;;;;34.60;46.20;94878.72;5091554;28;20443;-57
2023/07/20 08:42:44;;;;;;;0.73;0.73;;;;;;;35.26;44.50;94875.31;5091468;28;20477;-58
2023/07/20 08:45:14;;;;;;;3.17;0.90;;;;;;;34.34;42.44;94871.53;5091645;28;20529;-58
2023/07/20 08:47:44;;;;;;;1.10;1.10;;;;;;;33.96;41.79;94856.75;5091644;28;20652;-58
2023/07/20 08:50:15;;;;;;;0.73;0.73;;;;;;;34.80;41.33;94870.31;5091397;28;20952;-58
2023/07/20 08:52:44;;;;;;;1.63;0.50;;;;;;;35.60;39.45;94871.94;5088963;28;20462;-59
2023/07/20 08:55:13;;;;;;;1.10;1.00;;;;;;;34.98;39.51;94878.84;5092054;28;20456;-58
2023/07/20 08:57:44;;;;;;;1.20;1.07;;;;;;;35.31;40.18;94872.03;5093059;28;20443;-57
2023/07/20 09:00:17;;;;;;;1.10;1.10;;;;;;;35.20;40.25;94870.78;5081945;28;20472;-58
2023/07/20 09:02:46;;;;;;;0.73;0.73;;;;;;;35.84;39.36;94858.59;5070693;28;20475;-57
2023/07/20 09:05:17;;;;;;;0.60;0.60;;;;;;;36.56;38.84;94850.31;5096008;28;20908;-58
2023/07/20 09:07:45;;;;;;;1.10;0.90;;;;;;;36.00;39.62;94847.47;5095702;28;20194;-57
2023/07/20 09:10:14;;;;;;;0.63;0.60;;;;;;;36.36;40.96;94850.56;5095351;28;20200;-57
2023/07/20 09:12:44;;;;;;;0.83;0.60;;;;;;;36.39;40.50;94848.88;5095680;28;20225;-59
2023/07/20 09:15:13;;;;;;;1.10;1.00;;;;;;;36.80;40.75;94835.63;5095559;28;20228;-57
2023/07/20 09:17:47;;;;;;;0.60;0.50;;;;;;;37.13;39.15;94830.47;5095650;28;20194;-56
2023/07/20 09:20:18;;;;;;;1.63;1.53;;;;;;;36.77;39.90;94802.59;5095216;28;20193;-56
2023/07/20 09:22:52;;;;;;;0.40;0.40;;;;;;;37.67;38.86;94841.06;5095296;28;20228;-55
2023/07/20 09:25:21;;;;;;;2.73;1.50;;;;;;;36.45;39.20;94838.84;5069041;28;20314;-55
2023/07/20 09:27:51;;;;;;;1.33;1.23;;;;;;;36.63;39.60;94825.97;5095151;28;20201;-55
2023/07/20 09:30:20;;;;;;;1.15;1.15;;;;;;;37.13;40.88;94836.00;5095119;28;20229;-55
2023/07/20 09:32:50;;;;;;;0.77;0.77;;;;;;;37.09;40.30;94829.81;5095100;28;20193;-55
2023/07/20 09:35:24;;;;;;;1.63;1.00;;;;;;;36.54;38.88;94801.03;5095066;28;20254;-56
2023/07/20 09:38:00;;;;;;;1.58;1.48;;;;;;;37.03;39.54;94831.66;5095024;28;20185;-56
2023/07/20 09:40:31;;;;;;;1.05;0.90;;;;;;;37.34;39.28;94826.88;5094751;28;20229;-56
2023/07/20 09:43:05;;;;;;;0.57;0.57;;;;;;;38.09;38.89;94816.44;5094953;28;20204;-56
2023/07/20 09:45:37;;;;;;;0.80;0.70;;;;;;;38.06;37.70;94817.34;5094856;28;20217;-56
2023/07/20 09:48:26;;;;;;;1.05;1.05;;;;;;;37.86;39.18;94803.16;5094795;28;20662;-56
2023/07/20 09:50:59;;;;;;;0.90;0.90;;;;;;;37.86;37.97;94801.16;5094395;28;20204;-55
2023/07/20 09:53:28;;;;;;;1.25;1.15;;;;;;;37.51;38.17;94800.59;5094687;28;20627;-56
2023/07/20 09:55:58;;;;;;;0.80;0.60;;;;;;;37.76;37.26;94790.50;5094206;28;20243;-56
2023/07/20 09:58:27;;;;;;;1.08;1.08;;;;;;;37.18;37.61;94779.38;5094608;28;20198;-52
2023/07/20 10:00:58;;;;;;;1.33;1.23;;;;;;;37.03;37.91;94787.44;5093507;28;20685;-52
2023/07/20 10:03:29;;;;;;;1.05;0.95;;;;;;;37.90;38.18;94793.47;5095056;28;20221;-52
2023/07/20 10:06:08;;;;;;;0.80;0.60;;;;;;;38.38;37.39;94791.09;5069610;28;20217;-52
2023/07/20 10:08:39;;;;;;;0.45;0.45;;;;;;;38.46;36.82;94795.84;5093766;28;20194;-52
2023/07/20 10:11:13;;;;;;;1.30;1.20;;;;;;;38.88;36.51;94779.38;5094773;28;20196;-52
2023/07/20 10:13:44;;;;;;;1.15;1.15;;;;;;;39.24;35.72;94778.53;5093928;28;20189;-52
2023/07/20 10:16:21;;;;;;;0.60;0.60;;;;;;;39.46;37.92;94762.44;5094346;28;20197;-52
2023/07/20 10:18:56;;;;;;;5.68;1.23;;;;;;;38.67;36.61;94770.00;5094555;28;20272;-52
2023/07/20 10:21:26;;;;;;;0.55;0.50;;;;;;;38.75;36.54;94764.94;5094244;28;20783;-52
2023/07/20 10:23:58;;;;;;;0.88;0.65;;;;;;;37.72;36.95;94754.69;5094058;28;20308;-54
2023/07/20 10:26:27;;;;;;;0.60;0.60;;;;;;;38.46;37.41;94746.00;5094172;28;20267;-52
2023/07/20 10:28:56;;;;;;;0.55;0.55;;;;;;;39.70;35.83;94743.03;5093861;28;20189;-52
2023/07/20 10:31:28;;;;;;;1.00;0.60;;;;;;;39.60;35.73;94733.97;5093783;28;20786;-52
2023/07/20 10:33:58;;;;;;;0.90;0.90;;;;;;;39.19;35.61;94727.25;5094196;28;20613;-53
2023/07/20 10:36:28;;;;;;;0.60;0.60;;;;;;;39.58;35.22;94719.03;5093355;28;20534;-52
2023/07/20 10:39:00;;;;;;;2.42;1.08;;;;;;;38.14;36.40;94725.25;5094476;28;20197;-52
2023/07/20 10:41:30;;;;;;;1.30;1.30;;;;;;;37.85;37.09;94724.16;5093991;28;20548;-52
2023/07/20 10:44:01;;;;;;;0.73;0.73;;;;;;;37.81;36.19;94723.50;5093810;28;20197;-52
2023/07/20 10:46:43;;;;;;;0.63;0.63;;;;;;;38.47;35.41;94719.09;5093523;28;20682;-52
2023/07/20 10:49:12;;;;;;;0.60;0.60;;;;;;;39.47;36.91;94716.78;5093264;28;20634;-52
2023/07/20 10:51:43;;;;;;;0.47;0.40;;;;;;;40.63;33.96;94710.13;5093654;28;20229;-52
2023/07/20 10:54:35;;;;;;;0.68;0.68;;;;;;;40.45;33.40;94713.06;5093607;28;20255;-52
2023/07/20 10:57:30;;;;;;;1.40;1.30;;;;;;;39.31;32.98;94714.44;5093681;28;20194;-52
2023/07/20 11:00:11;;;;;;;0.75;0.68;;;;;;;39.73;33.30;94706.81;5083083;28;20298;-52
2023/07/20 11:02:46;;;;;;;0.95;0.95;;;;;;;39.98;33.20;94650.78;5066803;28;20247;-52
2023/07/20 11:05:35;;;;;;;8.73;1.25;;;;;;;40.13;33.62;94700.81;5093574;28;20251;-52
2023/07/20 11:08:11;;;;;;;0.77;0.77;;;;;;;40.40;33.54;94703.38;5093403;28;20194;-52
2023/07/20 11:10:40;;;;;;;1.02;0.63;;;;;;;41.03;32.64;94684.53;5093252;28;20603;-52
2023/07/20 11:13:23;;;;;;;0.70;0.70;;;;;;;41.90;32.05;94680.72;5093226;28;20277;-53
2023/07/20 11:16:12;;;;;;;1.25;1.25;;;;;;;41.25;33.39;94675.75;5070062;28;20189;-53
2023/07/20 11:18:43;;;;;;;0.40;0.40;;;;;;;41.51;31.69;94665.53;5076628;28;20201;-52
2023/07/20 11:21:12;;;;;;;0.45;0.40;;;;;;;41.92;30.92;94663.53;5092282;28;20208;-53
2023/07/20 11:23:42;;;;;;;0.90;0.75;;;;;;;42.24;33.09;94665.97;5092766;28;20193;-53
2023/07/20 11:26:12;;;;;;;0.30;0.30;;;;;;;42.35;33.51;94666.06;5093314;28;20218;-52
2023/07/20 11:28:40;;;;;;;0.50;0.50;;;;;;;42.21;33.15;94666.16;5093189;28;20185;-52
2023/07/20 11:31:08;;;;;;;1.10;1.00;;;;;;;42.36;33.75;94664.81;5092448;28;20614;-52
2023/07/20 11:33:37;;;;;;;0.40;0.40;;;;;;;42.44;33.78;94672.72;5092756;28;20201;-52
2023/07/20 11:36:06;;;;;;;0.82;0.60;;;;;;;42.56;31.89;94666.03;5092460;28;20197;-52
2023/07/20 11:38:37;;;;;;;0.43;0.43;;;;;;;42.58;29.73;94657.97;5092589;28;20662;-53
2023/07/20 11:41:10;;;;;;;2.55;1.20;;;;;;;41.14;30.13;94646.53;5078968;28;20198;-53
2023/07/20 11:43:39;;;;;;;0.50;0.50;;;;;;;41.20;30.75;94657.72;5092658;28;20193;-52
2023/07/20 11:46:08;;;;;;;1.90;0.52;;;;;;;40.59;31.04;94651.19;5092119;28;20267;-52
2023/07/20 11:48:36;;;;;;;0.93;0.93;;;;;;;40.52;31.32;94646.78;5092962;28;20212;-52